M I D A S
Marine Information and Data Acquisition System
Tripno 2092 of the Zeeleeuw from 2011-01-27 07:49:23 to 2011-01-27 16:19:56
Back to CruiseResearch ActivitiesStationsMapUnderway DataData graphs

EquipmentUnitsComment
TimeDGPSUTC
LatitudeDGPSDM.mWGS84
LongitudeDGPSDM.mWGS84
HeadingGyrodeg 
SOGDGPSknotsSpeed over ground
COGDGPSdegCourse over ground
DepthEcho soundermeters200 kHz
Missing or incorrect values are displayed as -999
Navigation data collected by the RV Zeeleeuw from 2011-01-27 07:50:34 to 2011-01-27 16:27:18
                                                                                    Next 1000 lines
Time Latitude Longitude Heading SOG COG Depth
2011-01-27 07:50:43 51°13.661 2°55.956 106.5 1.5 289 8.2
2011-01-27 07:50:48 51°13.662 2°55.952 106.4 2 290 8.2
2011-01-27 07:50:53 51°13.663 2°55.947 106.3 2.4 290 8.4
2011-01-27 07:50:59 51°13.665 2°55.94 106.3 2.8 292 7
2011-01-27 07:51:04 51°13.666 2°55.933 106.9 3.2 291 -999
2011-01-27 07:51:09 51°13.667 2°55.925 107.5 3.7 291 -999
2011-01-27 07:51:14 51°13.669 2°55.917 107.6 4 291 -999
2011-01-27 07:51:19 51°13.672 2°55.909 108.2 4.2 292 -999
2011-01-27 07:51:24 51°13.674 2°55.899 108.7 4.6 293 -999
2011-01-27 07:51:30 51°13.677 2°55.887 109.5 4.9 292 -999
2011-01-27 07:51:34 51°13.68 2°55.879 109.9 5.1 293 -999
2011-01-27 07:51:39 51°13.682 2°55.869 110.1 5.2 292 -999
2011-01-27 07:51:44 51°13.685 2°55.858 110.3 5.2 292 -999
2011-01-27 07:51:50 51°13.688 2°55.846 110 5.1 291 -999
2011-01-27 07:51:54 51°13.69 2°55.837 109.7 4.9 291 -999
2011-01-27 07:51:59 51°13.692 2°55.827 109.7 4.8 291 -999
2011-01-27 07:52:04 51°13.695 2°55.818 109.9 4.7 291 -999
2011-01-27 07:52:09 51°13.697 2°55.807 110.5 4.7 291 -999
2011-01-27 07:52:15 51°13.699 2°55.795 111.6 4.7 291 -999
2011-01-27 07:52:19 51°13.701 2°55.787 112.7 4.7 292 -999
2011-01-27 07:52:24 51°13.704 2°55.777 113.9 4.7 293 -999
2011-01-27 07:52:29 51°13.707 2°55.767 115.5 4.6 294 -999
2011-01-27 07:52:34 51°13.71 2°55.758 117.8 4.6 297 -999
2011-01-27 07:52:39 51°13.713 2°55.749 120.3 4.6 299 -999
2011-01-27 07:52:44 51°13.716 2°55.74 122.7 4.6 302 -999
2011-01-27 07:52:49 51°13.72 2°55.732 125.9 4.6 306 -999
2011-01-27 07:52:54 51°13.724 2°55.724 129.8 4.7 309 -999
2011-01-27 07:52:58 51°13.728 2°55.718 132.8 3.1 310 -999
2011-01-27 07:53:02 51°13.731 2°55.713 135.7 1.6 313 -999
2011-01-27 07:53:09 51°13.741 2°55.703 138.6 3.5 317 -999
2011-01-27 07:53:14 51°13.745 2°55.696 141.5 4 320 -999
2011-01-27 07:53:17 51°13.748 2°55.691 144.1 1.9 322 -999
2011-01-27 07:53:17 51°13.748 2°55.691 146.2 0.2 141 -999
2011-01-27 07:53:17 51°13.748 2°55.691 148.2 -999 143 -999
2011-01-27 07:53:17 51°13.748 2°55.691 150.5 -999 322 -999
2011-01-27 07:53:39 51°13.774 2°55.666 152.7 1 323 -999
2011-01-27 07:53:44 51°13.782 2°55.659 154.4 5.9 335 -999
2011-01-27 07:53:50 51°13.791 2°55.654 156.2 5.9 337 4.8
2011-01-27 07:53:54 51°13.797 2°55.65 158.4 6 340 -999
2011-01-27 07:53:59 51°13.805 2°55.645 159.8 6.1 341 -999
2011-01-27 07:54:04 51°13.814 2°55.64 161.7 6.1 343 -999
2011-01-27 07:54:10 51°13.823 2°55.636 163.5 6.2 345 -999
2011-01-27 07:54:14 51°13.83 2°55.634 166 6.2 347 -999
2011-01-27 07:54:19 51°13.838 2°55.631 168.2 5 348 -999
2011-01-27 07:54:23 51°13.845 2°55.629 169.8 3.2 348 -999
2011-01-27 07:54:29 51°13.856 2°55.627 172.1 5.9 352 -999
2011-01-27 07:54:34 51°13.863 2°55.625 173.8 4.7 353 -999
2011-01-27 07:54:39 51°13.871 2°55.624 175.7 5.8 355 -999
2011-01-27 07:54:44 51°13.879 2°55.623 177.3 5 356 -999
2011-01-27 07:54:49 51°13.887 2°55.623 179.6 5.5 358 -999
2011-01-27 07:54:54 51°13.895 2°55.622 182.8 3.8 1 -999
2011-01-27 07:54:59 51°13.901 2°55.621 185.5 5.2 3 -999
2011-01-27 07:55:04 51°13.908 2°55.623 187.7 4.9 5 -999
2011-01-27 07:55:05 51°13.909 2°55.623 190.8 0.3 7 -999
2011-01-27 07:55:05 51°13.909 2°55.623 193.2 0.2 185 -999
2011-01-27 07:55:19 51°13.926 2°55.63 195.3 0.8 12 12.4
2011-01-27 07:55:24 51°13.932 2°55.632 197.3 4.1 13 12.2
2011-01-27 07:55:29 51°13.937 2°55.634 198.6 4 15 12.2
2011-01-27 07:55:33 51°13.941 2°55.636 201 3.7 17 12.1
2011-01-27 07:55:38 51°13.946 2°55.638 202.9 3.4 18 12.2
2011-01-27 07:55:43 51°13.95 2°55.64 205 3.1 20 12.2
2011-01-27 07:55:48 51°13.954 2°55.641 207.5 2.5 21 12.4
2011-01-27 07:55:53 51°13.957 2°55.642 210.2 2 21 5.2
2011-01-27 07:55:58 51°13.959 2°55.644 213.2 1.4 21 12.2
2011-01-27 07:56:03 51°13.96 2°55.645 216.7 1.1 19 12.2
2011-01-27 07:56:07 51°13.961 2°55.646 222.1 0.9 16 12.2
2011-01-27 07:56:12 51°13.962 2°55.646 225.8 0.6 15 12.2
2011-01-27 07:56:17 51°13.962 2°55.647 230 0.6 7 12.2
2011-01-27 07:56:22 51°13.963 2°55.647 233.4 0.4 358 12.2
2011-01-27 07:56:27 51°13.964 2°55.647 236.7 0.4 336 12.2
2011-01-27 07:56:31 51°13.964 2°55.647 239.9 0.4 302 12.5
2011-01-27 07:56:36 51°13.964 2°55.646 243.2 0.6 286 12.2
2011-01-27 07:56:41 51°13.964 2°55.644 247 1 273 12.2
2011-01-27 07:56:46 51°13.964 2°55.641 251.7 1.4 273 12.2
2011-01-27 07:56:51 51°13.964 2°55.637 257.5 1.7 275 12.2
2011-01-27 07:56:56 51°13.965 2°55.632 264.2 2.1 278 12.2
2011-01-27 07:57:01 51°13.965 2°55.627 270.8 2.5 280 12.2
2011-01-27 07:57:05 51°13.966 2°55.622 277.1 2.4 287 12.2
2011-01-27 07:57:11 51°13.968 2°55.613 282.5 3.2 290 12.2
2011-01-27 07:57:15 51°13.97 2°55.607 287.7 4.2 296 12.2
2011-01-27 07:57:21 51°13.973 2°55.596 292.9 3.8 297 12.2
2011-01-27 07:57:26 51°13.977 2°55.587 297.8 3.6 302 11.6
2011-01-27 07:57:31 51°13.982 2°55.577 302 5.7 306 11.9
2011-01-27 07:57:36 51°13.987 2°55.566 305.8 6.2 309 11.9
2011-01-27 07:57:41 51°13.993 2°55.555 309.6 6.7 313 11.9
2011-01-27 07:57:46 51°14 2°55.544 312.7 5.8 316 11.8
2011-01-27 07:57:46 51°14 2°55.544 315.1 0.5 318 11.9
2011-01-27 07:57:46 51°14 2°55.544 318 0.2 136 11.7
2011-01-27 07:57:46 51°14 2°55.544 321.6 -999 312 11.8
2011-01-27 07:58:06 51°14.035 2°55.499 324.5 5.2 324 11.7
2011-01-27 07:58:11 51°14.046 2°55.49 326.4 5.6 328 11.6
2011-01-27 07:58:16 51°14.057 2°55.482 328.5 8.7 330 11.6
2011-01-27 07:58:21 51°14.067 2°55.472 329.2 9 330 11.8
2011-01-27 07:58:26 51°14.079 2°55.462 329.4 9.2 330 11.7
2011-01-27 07:58:31 51°14.09 2°55.452 330.8 9.4 332 11.6
2011-01-27 07:58:36 51°14.102 2°55.442 331.4 9.5 332 11.5
2011-01-27 07:58:41 51°14.114 2°55.432 331.2 9.7 332 11.5
2011-01-27 07:58:46 51°14.126 2°55.421 330.9 9.8 332 11.6
2011-01-27 07:58:51 51°14.138 2°55.411 331.1 9.8 332 11.8
2011-01-27 07:58:56 51°14.15 2°55.4 331 9.9 331 11.5
2011-01-27 07:59:01 51°14.162 2°55.39 330.8 10 332 11.5
2011-01-27 07:59:06 51°14.174 2°55.379 330.6 10.1 329 11.5
2011-01-27 07:59:11 51°14.187 2°55.368 329.8 10.1 330 11.5
2011-01-27 07:59:16 51°14.199 2°55.356 329.5 10.1 329 -999
2011-01-27 07:59:22 51°14.213 2°55.342 329.5 10.3 330 11.4
2011-01-27 07:59:27 51°14.226 2°55.33 328.6 10.4 327 -999
2011-01-27 07:59:32 51°14.238 2°55.317 327.5 10.4 328 -999
2011-01-27 07:59:38 51°14.253 2°55.302 327.1 10.6 327 -999
2011-01-27 07:59:43 51°14.265 2°55.289 326.4 10.6 327 11.4
2011-01-27 07:59:48 51°14.278 2°55.277 326.7 10.7 328 11.5
2011-01-27 07:59:53 51°14.29 2°55.264 327.1 10.8 327 11.8
2011-01-27 07:59:58 51°14.303 2°55.251 327.2 10.8 329 11.6
2011-01-27 08:00:03 51°14.315 2°55.238 327.6 10.8 327 11.3
2011-01-27 08:00:07 51°14.325 2°55.228 327.2 10.8 327 -999
2011-01-27 08:00:13 51°14.34 2°55.211 326 10.8 326 11.6
2011-01-27 08:00:18 51°14.353 2°55.198 325.7 10.9 327 11.6
2011-01-27 08:00:23 51°14.365 2°55.185 326.3 10.8 325 11.2
2011-01-27 08:00:28 51°14.377 2°55.171 325.5 10.9 325 11.3
2011-01-27 08:00:33 51°14.39 2°55.157 324.4 10.9 325 12.1
2011-01-27 08:00:38 51°14.402 2°55.143 324 11 326 11.6
2011-01-27 08:00:43 51°14.415 2°55.13 325.3 11.1 327 11.9
2011-01-27 08:00:47 51°14.426 2°55.119 326.7 11.3 327 11.7
2011-01-27 08:00:52 51°14.439 2°55.105 326.5 11.4 326 12.1
2011-01-27 08:00:57 51°14.452 2°55.091 326 11.4 327 11.8
2011-01-27 08:01:03 51°14.468 2°55.074 326.8 11.6 327 -999
2011-01-27 08:01:08 51°14.481 2°55.059 327.8 11.6 326 12.6
2011-01-27 08:01:13 51°14.495 2°55.045 326.4 11.8 324 12.4
2011-01-27 08:01:18 51°14.508 2°55.03 325.9 11.9 325 12.1
2011-01-27 08:01:23 51°14.521 2°55.015 326.3 12 324 12
2011-01-27 08:01:27 51°14.532 2°55.001 325.5 12.1 324 12.7
2011-01-27 08:01:32 51°14.546 2°54.985 324.7 12.3 323 12.7
2011-01-27 08:01:37 51°14.56 2°54.969 323.5 12.5 324 12.5
2011-01-27 08:01:42 51°14.574 2°54.952 323.9 12.7 324 12.6
2011-01-27 08:01:47 51°14.589 2°54.936 324.5 12.8 324 13.4
2011-01-27 08:01:51 51°14.6 2°54.922 323.8 12.8 323 13
2011-01-27 08:01:56 51°14.615 2°54.906 323.8 12.8 325 13.1
2011-01-27 08:02:01 51°14.629 2°54.889 324.2 12.9 324 13.2
2011-01-27 08:02:06 51°14.643 2°54.872 324.1 12.8 324 12.2
2011-01-27 08:02:11 51°14.658 2°54.856 323.6 12.8 325 12.5
2011-01-27 08:02:16 51°14.673 2°54.84 323.4 12.9 326 12.6
2011-01-27 08:02:20 51°14.685 2°54.828 325 12.9 327 13.2
2011-01-27 08:02:26 51°14.703 2°54.809 325.8 12.8 328 13.1
2011-01-27 08:02:31 51°14.718 2°54.794 326.6 12.9 328 -999
2011-01-27 08:02:37 51°14.736 2°54.776 326.5 12.8 328 -999
2011-01-27 08:02:43 51°14.754 2°54.757 326.3 13 327 -999
2011-01-27 08:02:48 51°14.769 2°54.741 325.2 13 326 -999
2011-01-27 08:02:53 51°14.784 2°54.725 324.8 13.1 325 12.7
2011-01-27 08:02:59 51°14.801 2°54.705 323.8 13.2 325 -999
2011-01-27 08:03:03 51°14.813 2°54.691 323.5 12.9 324 12.7
2011-01-27 08:03:08 51°14.828 2°54.674 323 13.1 324 -999
2011-01-27 08:03:14 51°14.845 2°54.653 322.9 13.1 323 13.1
2011-01-27 08:03:19 51°14.86 2°54.636 322.2 13.1 324 13
2011-01-27 08:03:23 51°14.872 2°54.623 321.9 13.1 326 -999
2011-01-27 08:03:29 51°14.89 2°54.604 322.7 13.2 325 -999
2011-01-27 08:03:34 51°14.905 2°54.588 323.5 13.1 326 -999
2011-01-27 08:03:39 51°14.92 2°54.571 323.5 13 325 -999
2011-01-27 08:03:44 51°14.935 2°54.555 322.6 13.1 327 -999
2011-01-27 08:03:49 51°14.95 2°54.539 323.1 13.1 324 11.9
2011-01-27 08:03:54 51°14.965 2°54.522 322.8 13.2 325 12.2
2011-01-27 08:03:59 51°14.979 2°54.505 322.4 13 325 11.8
2011-01-27 08:04:03 51°14.991 2°54.492 321.7 13 325 12.6
2011-01-27 08:04:08 51°15.006 2°54.476 322.2 13.1 325 12.1
2011-01-27 08:04:13 51°15.02 2°54.458 321.9 13 323 12.6
2011-01-27 08:04:18 51°15.035 2°54.442 320.7 13.1 324 12.2
2011-01-27 08:04:23 51°15.05 2°54.425 320.7 13.1 324 12.5
2011-01-27 08:04:27 51°15.061 2°54.411 320.9 13.1 324 13.1
2011-01-27 08:04:32 51°15.076 2°54.394 320.2 13.1 324 12.5
2011-01-27 08:04:37 51°15.091 2°54.377 320.6 13.1 325 12.2
2011-01-27 08:04:42 51°15.105 2°54.36 321 13.1 324 12.3
2011-01-27 08:04:47 51°15.12 2°54.343 320.6 13.1 323 12.1
2011-01-27 08:04:51 51°15.132 2°54.329 320.9 13.1 323 12.5
2011-01-27 08:04:56 51°15.146 2°54.312 320.4 13 322 12.6
2011-01-27 08:05:01 51°15.16 2°54.293 320.2 13.1 321 12.8
2011-01-27 08:05:06 51°15.174 2°54.275 319.3 13.1 320 12.2
2011-01-27 08:05:11 51°15.188 2°54.256 318.6 13.2 321 12.4
2011-01-27 08:05:16 51°15.201 2°54.239 318.7 12.8 320 11.9
2011-01-27 08:05:21 51°15.215 2°54.221 319 12.7 320 12.6
2011-01-27 08:05:26 51°15.228 2°54.202 318 12.8 320 13
2011-01-27 08:05:31 51°15.242 2°54.184 318.2 12.9 321 12.7
2011-01-27 08:05:36 51°15.256 2°54.165 318.6 12.9 321 12.8
2011-01-27 08:05:41 51°15.27 2°54.148 318.9 12.8 321 12.3
2011-01-27 08:05:46 51°15.284 2°54.13 319.7 12.8 321 12.4
2011-01-27 08:05:51 51°15.298 2°54.112 319.9 12.9 321 13.1
2011-01-27 08:05:56 51°15.312 2°54.094 319.6 12.9 321 12.5
2011-01-27 08:06:01 51°15.326 2°54.076 319.6 12.9 321 12.4
2011-01-27 08:06:06 51°15.34 2°54.058 319.9 13 322 12.8
2011-01-27 08:06:11 51°15.354 2°54.041 320.7 13 322 12.4
2011-01-27 08:06:15 51°15.366 2°54.026 321.2 13.1 323 12.5
2011-01-27 08:06:21 51°15.383 2°54.005 321.3 13.1 323 13
2011-01-27 08:06:26 51°15.398 2°53.988 321.5 13.1 323 13
2011-01-27 08:06:31 51°15.413 2°53.97 321.6 13.2 323 13.4
2011-01-27 08:06:35 51°15.424 2°53.956 321.6 13.3 323 13.1
2011-01-27 08:06:41 51°15.442 2°53.935 321.4 13.1 322 12.7
2011-01-27 08:06:46 51°15.456 2°53.917 321.2 13.1 322 13
2011-01-27 08:06:51 51°15.471 2°53.899 320.9 13.2 322 13.3
2011-01-27 08:06:56 51°15.485 2°53.881 320.8 13.3 322 13.4
2011-01-27 08:07:00 51°15.497 2°53.867 320.7 13.2 322 12.7
2011-01-27 08:07:06 51°15.513 2°53.845 320.5 13.2 322 12.9
2011-01-27 08:07:11 51°15.528 2°53.827 319.9 13.2 321 13.3
2011-01-27 08:07:15 51°15.539 2°53.813 320.2 13.3 322 13.4
2011-01-27 08:07:21 51°15.557 2°53.791 320.3 13.2 321 12.9
2011-01-27 08:07:26 51°15.571 2°53.774 320.2 13.2 323 12.9
2011-01-27 08:07:31 51°15.586 2°53.756 320.6 13.2 322 13.1
2011-01-27 08:07:36 51°15.6 2°53.738 320.4 13 321 13.1
2011-01-27 08:07:41 51°15.614 2°53.719 319.5 13.1 321 13.4
2011-01-27 08:07:46 51°15.628 2°53.701 319.1 13.1 321 13.3
2011-01-27 08:07:51 51°15.642 2°53.683 319.2 13.2 321 13.6
2011-01-27 08:07:56 51°15.657 2°53.665 319.3 13.2 322 13
2011-01-27 08:08:01 51°15.671 2°53.647 319.7 13.1 322 13.2
2011-01-27 08:08:06 51°15.686 2°53.629 319.6 13.2 322 13.9
2011-01-27 08:08:11 51°15.7 2°53.61 319.6 13.2 321 13.4
2011-01-27 08:08:16 51°15.714 2°53.592 318.8 13.1 321 13.1
2011-01-27 08:08:21 51°15.729 2°53.574 318.9 13.3 322 13.1
2011-01-27 08:08:26 51°15.743 2°53.557 319.1 13.2 323 13.2
2011-01-27 08:08:31 51°15.758 2°53.54 320.9 13.3 326 13.1
2011-01-27 08:08:35 51°15.771 2°53.528 323.9 13.3 328 12.8
2011-01-27 08:08:41 51°15.79 2°53.511 326.3 13.1 331 13.5
2011-01-27 08:08:46 51°15.806 2°53.498 329.2 12.9 333 13.2
2011-01-27 08:08:51 51°15.822 2°53.485 330.6 12.9 334 13.8
2011-01-27 08:08:56 51°15.838 2°53.473 332.2 12.9 336 13.7
2011-01-27 08:09:01 51°15.855 2°53.463 333.3 12.7 337 13.1
2011-01-27 08:09:06 51°15.871 2°53.452 334.8 12.9 337 13
2011-01-27 08:09:11 51°15.888 2°53.441 335.4 13 337 13.3
2011-01-27 08:09:15 51°15.901 2°53.432 336.1 12.8 338 12.4
2011-01-27 08:09:21 51°15.92 2°53.42 336.9 12.8 338 13.1
2011-01-27 08:09:26 51°15.937 2°53.408 335.7 12.9 337 13.6
2011-01-27 08:09:31 51°15.953 2°53.397 334.9 12.9 337 13
2011-01-27 08:09:36 51°15.97 2°53.384 334.2 13 335 13
2011-01-27 08:09:41 51°15.986 2°53.372 334 13 335 12.7
2011-01-27 08:09:46 51°16.002 2°53.36 333 13.2 334 13.4
2011-01-27 08:09:51 51°16.019 2°53.347 332.2 13.2 334 13.1
2011-01-27 08:09:56 51°16.035 2°53.334 331.9 13.2 333 12.9
2011-01-27 08:10:01 51°16.051 2°53.321 331.7 13.2 334 13
2011-01-27 08:10:06 51°16.068 2°53.309 331.5 13.3 334 13.2
2011-01-27 08:10:11 51°16.085 2°53.296 331.8 13.3 335 13.1
2011-01-27 08:10:16 51°16.101 2°53.283 331.9 13.2 334 13
2011-01-27 08:10:21 51°16.117 2°53.27 331.8 13.2 334 13.5
2011-01-27 08:10:26 51°16.134 2°53.257 331.6 13.3 334 13.7
2011-01-27 08:10:31 51°16.15 2°53.244 331.5 13 333 12.8
2011-01-27 08:10:35 51°16.163 2°53.234 330.5 13.1 333 13.3
2011-01-27 08:10:41 51°16.183 2°53.218 330.2 13.1 333 12.9
2011-01-27 08:10:46 51°16.198 2°53.205 330.6 12.9 333 12.3
2011-01-27 08:10:51 51°16.214 2°53.191 329.8 13.1 332 13.4
2011-01-27 08:10:55 51°16.227 2°53.181 330.3 13.1 333 13.4
2011-01-27 08:11:01 51°16.247 2°53.165 330.4 13 334 13.4
2011-01-27 08:11:06 51°16.263 2°53.152 331.1 13.1 334 12.8
2011-01-27 08:11:11 51°16.279 2°53.14 331.8 13.1 335 13.4
2011-01-27 08:11:16 51°16.296 2°53.127 332 13.1 334 13.6
2011-01-27 08:11:21 51°16.312 2°53.114 332.2 13.3 335 13.4
2011-01-27 08:11:26 51°16.329 2°53.102 332.5 13.2 335 13
2011-01-27 08:11:31 51°16.345 2°53.089 332.7 13.1 335 13.5
2011-01-27 08:11:35 51°16.359 2°53.079 333 13.2 334 13.4
2011-01-27 08:11:41 51°16.379 2°53.064 333.2 13.2 335 13.3
2011-01-27 08:11:46 51°16.395 2°53.052 333.3 13.2 335 13.1
2011-01-27 08:11:51 51°16.412 2°53.04 333.4 13.1 335 12.6
2011-01-27 08:11:56 51°16.428 2°53.028 333.2 13 335 13.3
2011-01-27 08:12:01 51°16.444 2°53.015 333.1 13.1 334 13.8
2011-01-27 08:12:06 51°16.461 2°53.003 333.1 13.2 335 13.9
2011-01-27 08:12:11 51°16.478 2°52.991 333.4 13.2 336 13.4
2011-01-27 08:12:16 51°16.494 2°52.979 333.7 13.2 335 13.3
2011-01-27 08:12:21 51°16.511 2°52.967 334 13.1 336 13
2011-01-27 08:12:26 51°16.528 2°52.956 334.3 13.2 336 13.5
2011-01-27 08:12:31 51°16.545 2°52.944 334.6 13.3 337 13.5
2011-01-27 08:12:36 51°16.561 2°52.932 334.7 13.3 335 13
2011-01-27 08:12:41 51°16.577 2°52.92 334.2 12.8 335 12.1
2011-01-27 08:12:46 51°16.593 2°52.908 333.5 12.6 335 12.5
2011-01-27 08:12:51 51°16.609 2°52.896 333.2 12.7 335 13.3
2011-01-27 08:12:55 51°16.623 2°52.887 334 13 335 13.2
2011-01-27 08:13:01 51°16.642 2°52.872 333.6 13.1 335 12.9
2011-01-27 08:13:06 51°16.659 2°52.86 333.3 13 335 12.2
2011-01-27 08:13:11 51°16.675 2°52.848 333.4 13 334 12.5
2011-01-27 08:13:16 51°16.692 2°52.835 333.5 13.2 335 13.1
2011-01-27 08:13:21 51°16.708 2°52.823 333.4 13.2 335 12.5
2011-01-27 08:13:26 51°16.725 2°52.811 333.8 13.3 335 12.4
2011-01-27 08:13:31 51°16.742 2°52.799 334.1 13.3 336 12
2011-01-27 08:13:35 51°16.755 2°52.79 334.5 13.3 336 11.5
2011-01-27 08:13:41 51°16.775 2°52.776 334.5 13.3 337 10.9
2011-01-27 08:13:46 51°16.792 2°52.764 334.6 13.3 336 11.2
2011-01-27 08:13:51 51°16.809 2°52.751 334.6 13.3 336 11
2011-01-27 08:13:56 51°16.825 2°52.738 334.5 13.1 334 10.7
2011-01-27 08:14:00 51°16.838 2°52.729 333.7 13.2 336 10.7
2011-01-27 08:14:06 51°16.858 2°52.714 334 13.2 336 11.1
2011-01-27 08:14:11 51°16.875 2°52.702 334.2 13.2 335 10.5
2011-01-27 08:14:15 51°16.889 2°52.692 333.7 13.2 335 10.8
2011-01-27 08:14:21 51°16.909 2°52.678 333.6 13.3 336 10.7
2011-01-27 08:14:26 51°16.926 2°52.666 334 13.2 337 10.5
2011-01-27 08:14:31 51°16.943 2°52.654 334.3 13.4 336 11.6
2011-01-27 08:14:36 51°16.96 2°52.642 334.3 13.4 337 11.4
2011-01-27 08:14:41 51°16.976 2°52.629 334 13.5 335 11.3
2011-01-27 08:14:46 51°16.993 2°52.617 334.1 13.5 336 11.3
2011-01-27 08:14:51 51°17.01 2°52.605 333.8 13.2 335 10.8
2011-01-27 08:14:56 51°17.026 2°52.593 333.7 13.1 335 10.7
2011-01-27 08:15:01 51°17.043 2°52.581 332.9 13.1 336 10.8
2011-01-27 08:15:06 51°17.06 2°52.568 333.2 13.3 336 11
2011-01-27 08:15:11 51°17.076 2°52.557 333.7 13.1 337 10.1
2011-01-27 08:15:15 51°17.089 2°52.547 333.6 13.3 335 11.2
2011-01-27 08:15:21 51°17.109 2°52.532 333.4 13.3 336 11.8
2011-01-27 08:15:26 51°17.126 2°52.52 333.4 13.1 335 10.9
2011-01-27 08:15:31 51°17.142 2°52.508 333.1 13 335 10.9
2011-01-27 08:15:36 51°17.159 2°52.496 332.8 13.1 335 11.2
2011-01-27 08:15:41 51°17.175 2°52.484 333.1 13.3 335 11.9
2011-01-27 08:15:46 51°17.192 2°52.471 333.2 13.3 335 11.4
2011-01-27 08:15:51 51°17.209 2°52.459 333.2 13.2 336 11.4
2011-01-27 08:15:55 51°17.222 2°52.449 333.4 13.3 336 11.9
2011-01-27 08:16:01 51°17.242 2°52.435 333.7 13.3 336 11.2
2011-01-27 08:16:06 51°17.259 2°52.423 333.8 13.4 336 11.5
2011-01-27 08:16:11 51°17.276 2°52.41 334 13.1 336 11.1
2011-01-27 08:16:16 51°17.293 2°52.398 333.7 13.3 335 12.2
2011-01-27 08:16:21 51°17.309 2°52.386 333.2 13.2 336 11.3
2011-01-27 08:16:26 51°17.326 2°52.374 333.3 13.1 336 11.2
2011-01-27 08:16:31 51°17.343 2°52.362 333.7 13.3 336 12.2
2011-01-27 08:16:36 51°17.359 2°52.35 334 13.2 335 11.8
2011-01-27 08:16:41 51°17.376 2°52.338 333.6 13.2 335 11.5
2011-01-27 08:16:46 51°17.393 2°52.326 333.3 13.1 336 11.2
2011-01-27 08:16:51 51°17.409 2°52.314 333.2 13.2 336 11.7
2011-01-27 08:16:56 51°17.426 2°52.301 333 13.3 336 11.6
2011-01-27 08:17:01 51°17.443 2°52.289 333.2 13.3 335 11.4
2011-01-27 08:17:06 51°17.46 2°52.276 333.3 13.2 336 11.2
2011-01-27 08:17:11 51°17.476 2°52.264 333.7 13.2 335 12
2011-01-27 08:17:15 51°17.489 2°52.253 333.5 13.3 334 12.1
2011-01-27 08:17:21 51°17.51 2°52.238 332.7 13.4 335 12.5
2011-01-27 08:17:26 51°17.526 2°52.225 333.2 13.3 335 12.3
2011-01-27 08:17:31 51°17.543 2°52.212 333.2 13.4 334 12.9
2011-01-27 08:17:35 51°17.557 2°52.202 332.7 13.5 334 12.6
2011-01-27 08:17:41 51°17.577 2°52.186 332.5 13.5 334 12.8
2011-01-27 08:17:46 51°17.593 2°52.174 332.7 13.4 334 12.1
2011-01-27 08:17:51 51°17.61 2°52.16 332.5 13.5 333 12.7
2011-01-27 08:17:56 51°17.627 2°52.147 331.9 13.4 334 12.4
2011-01-27 08:18:01 51°17.643 2°52.134 332.5 13.3 334 12.4
2011-01-27 08:18:06 51°17.66 2°52.122 332.7 13.5 335 12.7
2011-01-27 08:18:11 51°17.677 2°52.108 332.9 13.5 334 13.1
2011-01-27 08:18:15 51°17.691 2°52.098 333.6 13.3 335 12.1
2011-01-27 08:18:21 51°17.711 2°52.084 332.8 13.2 335 11.9
2011-01-27 08:18:26 51°17.727 2°52.072 333.2 13.2 335 12.6
2011-01-27 08:18:31 51°17.744 2°52.059 333.2 13.3 335 13
2011-01-27 08:18:36 51°17.761 2°52.047 333.6 13.1 334 11.9
2011-01-27 08:18:41 51°17.777 2°52.034 333.5 13.1 335 11.6
2011-01-27 08:18:46 51°17.794 2°52.022 333 13.2 335 12.4
2011-01-27 08:18:51 51°17.811 2°52.01 333.9 13.2 337 12.1
2011-01-27 08:18:55 51°17.824 2°52.002 336.1 13.4 342 12.3
2011-01-27 08:19:01 51°17.845 2°51.991 339.9 13.2 342 12
2011-01-27 08:19:06 51°17.862 2°51.984 341.9 12.8 345 11.1
2011-01-27 08:19:11 51°17.88 2°51.977 343.3 13 345 11.8
2011-01-27 08:19:16 51°17.898 2°51.971 345 13 347 12.1
2011-01-27 08:19:21 51°17.915 2°51.965 346.7 12.9 347 11.5
2011-01-27 08:19:26 51°17.933 2°51.959 347 13.1 348 12.6
2011-01-27 08:19:31 51°17.951 2°51.953 347.7 13 349 11.6
2011-01-27 08:19:36 51°17.968 2°51.948 348.5 12.7 350 11.1
2011-01-27 08:19:41 51°17.985 2°51.942 349.1 12.8 348 11.9
2011-01-27 08:19:46 51°18.003 2°51.938 349 12.9 351 11.9
2011-01-27 08:19:51 51°18.021 2°51.932 349.2 13.1 348 11.6
2011-01-27 08:19:55 51°18.035 2°51.929 349 13.1 350 11.6
2011-01-27 08:20:01 51°18.057 2°51.922 349.2 13.1 349 11.8
2011-01-27 08:20:06 51°18.075 2°51.917 349.4 13.2 351 12
2011-01-27 08:20:11 51°18.093 2°51.912 349.4 13.3 350 12
2011-01-27 08:20:16 51°18.111 2°51.907 349.9 13.1 350 11.8
2011-01-27 08:20:21 51°18.129 2°51.902 349.8 13.2 351 12.3
2011-01-27 08:20:26 51°18.148 2°51.897 349.9 13.5 350 12.5
2011-01-27 08:20:31 51°18.166 2°51.892 349.9 13.5 350 12.6
2011-01-27 08:20:36 51°18.184 2°51.887 349.9 13.3 350 12
2011-01-27 08:20:40 51°18.199 2°51.883 349.6 13.4 349 12.2
2011-01-27 08:20:46 51°18.22 2°51.875 348.7 13.4 347 11.8
2011-01-27 08:20:51 51°18.238 2°51.869 348 13.2 347 13.1
2011-01-27 08:20:55 51°18.252 2°51.863 346.6 13.2 346 12.3
2011-01-27 08:21:01 51°18.274 2°51.855 345.8 13.1 347 12
2011-01-27 08:21:06 51°18.291 2°51.848 346.2 13.1 346 12.5
2011-01-27 08:21:11 51°18.309 2°51.842 346 13.1 347 13.5
2011-01-27 08:21:16 51°18.327 2°51.834 346 12.8 345 14
2011-01-27 08:21:21 51°18.344 2°51.827 345.5 12.9 345 12.8
2011-01-27 08:21:26 51°18.361 2°51.818 344.6 13 344 13.2
2011-01-27 08:21:31 51°18.378 2°51.811 343.7 13 346 13.4
2011-01-27 08:21:36 51°18.396 2°51.804 344.4 13.2 345 13.7
2011-01-27 08:21:41 51°18.414 2°51.796 344.7 13 345 12.6
2011-01-27 08:21:46 51°18.431 2°51.789 344.8 13 345 12.9
2011-01-27 08:21:51 51°18.448 2°51.781 344.8 13 345 13.6
2011-01-27 08:21:55 51°18.462 2°51.775 345.1 12.9 345 13.4
2011-01-27 08:22:01 51°18.483 2°51.766 345 13 344 13.5
2011-01-27 08:22:06 51°18.5 2°51.758 344.2 12.9 344 13.2
2011-01-27 08:22:11 51°18.518 2°51.751 344.5 12.9 346 14.4
2011-01-27 08:22:15 51°18.532 2°51.745 344.8 12.9 344 14.2
2011-01-27 08:22:21 51°18.553 2°51.736 344.8 13.2 345 14.7
2011-01-27 08:22:26 51°18.57 2°51.728 344.5 13 344 14
2011-01-27 08:22:31 51°18.588 2°51.72 344.1 13.2 344 14.6
2011-01-27 08:22:36 51°18.605 2°51.713 344.1 13.2 344 14.5
2011-01-27 08:22:40 51°18.62 2°51.707 344.4 13.2 345 14.6
2011-01-27 08:22:46 51°18.641 2°51.697 344.8 13.3 345 14.8
2011-01-27 08:22:51 51°18.658 2°51.69 344.8 13.2 345 14.7
2011-01-27 08:22:55 51°18.672 2°51.684 344.8 13.4 345 15.8
2011-01-27 08:23:01 51°18.694 2°51.674 344.8 13.2 345 15.1
2011-01-27 08:23:06 51°18.711 2°51.667 344.8 13 345 14.9
2011-01-27 08:23:11 51°18.729 2°51.66 344.9 13 345 14.4
2011-01-27 08:23:16 51°18.746 2°51.652 344.7 13 345 14.6
2011-01-27 08:23:20 51°18.761 2°51.646 344.6 13.1 345 14.8
2011-01-27 08:23:26 51°18.782 2°51.637 344.4 13.1 345 15.4
2011-01-27 08:23:31 51°18.799 2°51.629 344.8 13.2 345 15.4
2011-01-27 08:23:35 51°18.813 2°51.623 344.5 13 344 14.6
2011-01-27 08:23:41 51°18.834 2°51.614 344.3 13 344 15.2
2011-01-27 08:23:46 51°18.851 2°51.605 343.8 13.1 343 16.1
2011-01-27 08:23:51 51°18.869 2°51.597 343.8 13.1 345 15.9
2011-01-27 08:23:56 51°18.887 2°51.589 344.3 13.2 344 16
2011-01-27 08:24:01 51°18.904 2°51.581 344.6 13.3 344 16.1
2011-01-27 08:24:06 51°18.922 2°51.574 344.7 13.3 345 15.8
2011-01-27 08:24:11 51°18.94 2°51.566 344.3 13.4 344 16.1
2011-01-27 08:24:15 51°18.954 2°51.56 344.6 13.4 345 16.3
2011-01-27 08:24:21 51°18.976 2°51.55 344.4 13.4 345 16.6
2011-01-27 08:24:26 51°18.993 2°51.543 344.9 13.1 345 15.6
2011-01-27 08:24:31 51°19.01 2°51.536 344.8 12.8 345 15.7
2011-01-27 08:24:36 51°19.027 2°51.528 344.7 12.8 344 16.2
2011-01-27 08:24:40 51°19.041 2°51.521 343.9 13.1 342 16.9
2011-01-27 08:24:46 51°19.061 2°51.509 341.8 13 340 16.5
2011-01-27 08:24:51 51°19.078 2°51.499 339.8 13.2 339 16.9
2011-01-27 08:24:55 51°19.092 2°51.491 338.8 13.3 338 17
2011-01-27 08:25:01 51°19.113 2°51.477 337.6 13.3 337 16.5
2011-01-27 08:25:06 51°19.129 2°51.465 336.6 13.2 337 16.5
2011-01-27 08:25:11 51°19.146 2°51.453 336.4 13.3 336 16.8
2011-01-27 08:25:15 51°19.16 2°51.444 335.5 13.3 336 16.6
2011-01-27 08:25:21 51°19.18 2°51.429 335.4 13.4 336 16.7
2011-01-27 08:25:26 51°19.197 2°51.417 335.4 13.4 337 16.3
2011-01-27 08:25:31 51°19.214 2°51.405 335.3 13.5 336 16.4
2011-01-27 08:25:36 51°19.231 2°51.393 335.1 13.6 336 16.4
2011-01-27 08:25:41 51°19.248 2°51.381 335.2 13.4 337 16
2011-01-27 08:25:46 51°19.265 2°51.369 335.5 13.4 337 16.5
2011-01-27 08:25:51 51°19.283 2°51.357 335.5 13.4 336 16.6
2011-01-27 08:25:56 51°19.3 2°51.345 335.2 13.5 337 17
2011-01-27 08:26:01 51°19.317 2°51.334 335.4 13.5 337 16.7
2011-01-27 08:26:06 51°19.334 2°51.321 334.9 13.5 336 16.6
2011-01-27 08:26:11 51°19.351 2°51.31 335 13.5 337 16.3
2011-01-27 08:26:16 51°19.368 2°51.297 335.4 13.5 335 16.7
2011-01-27 08:26:21 51°19.385 2°51.285 334.7 13.4 335 15.9
2011-01-27 08:26:26 51°19.401 2°51.273 334.7 13.1 335 15.2
2011-01-27 08:26:31 51°19.418 2°51.26 334.1 13 335 16
2011-01-27 08:26:36 51°19.434 2°51.247 333.6 13 335 16.6
2011-01-27 08:26:41 51°19.451 2°51.235 333.8 13.2 335 16.8
2011-01-27 08:26:46 51°19.468 2°51.223 334.1 13.2 336 16.5
2011-01-27 08:26:51 51°19.485 2°51.211 335.1 13.4 336 16.7
2011-01-27 08:26:55 51°19.499 2°51.201 335.1 13.5 335 16.6
2011-01-27 08:27:01 51°19.519 2°51.187 335 13.5 336 16.9
2011-01-27 08:27:06 51°19.536 2°51.175 335.4 13.5 336 16.2
2011-01-27 08:27:11 51°19.554 2°51.164 335.4 13.5 338 15.5
2011-01-27 08:27:16 51°19.57 2°51.151 335.5 13.3 336 15.6
2011-01-27 08:27:21 51°19.587 2°51.139 335.1 13.4 337 15.9
2011-01-27 08:27:26 51°19.605 2°51.128 335.2 13.6 336 15.2
2011-01-27 08:27:31 51°19.622 2°51.115 334.9 13.6 336 15.4
2011-01-27 08:27:36 51°19.639 2°51.103 335.1 13.3 336 14.6
2011-01-27 08:27:40 51°19.652 2°51.093 335.1 13.3 337 14.6
2011-01-27 08:27:46 51°19.673 2°51.079 334.9 13.4 336 15
2011-01-27 08:27:51 51°19.689 2°51.067 335.2 13.3 335 14.2
2011-01-27 08:27:55 51°19.703 2°51.057 334.3 13.4 335 14.2
2011-01-27 08:28:01 51°19.723 2°51.042 334.2 13.5 336 14.2
2011-01-27 08:28:06 51°19.74 2°51.029 334.4 13.4 335 14.1
2011-01-27 08:28:11 51°19.757 2°51.018 334.3 13.4 336 13.3
2011-01-27 08:28:16 51°19.774 2°51.005 333.8 13.5 335 13.5
2011-01-27 08:28:21 51°19.791 2°50.993 334 13.5 336 13.3
2011-01-27 08:28:26 51°19.808 2°50.98 334 13.5 336 13.4
2011-01-27 08:28:31 51°19.825 2°50.967 334.4 13.4 335 14
2011-01-27 08:28:36 51°19.842 2°50.955 334.9 13.5 336 13.7
2011-01-27 08:28:41 51°19.859 2°50.942 333.2 13.6 335 13.9
2011-01-27 08:28:46 51°19.876 2°50.93 334.3 13 336 13.1
2011-01-27 08:28:51 51°19.892 2°50.918 334.8 12.9 336 13.5
2011-01-27 08:28:56 51°19.909 2°50.906 334 13.1 336 14.3
2011-01-27 08:29:01 51°19.925 2°50.894 334.4 13 335 13.3
2011-01-27 08:29:06 51°19.941 2°50.882 334 13.1 336 13.7
2011-01-27 08:29:11 51°19.958 2°50.87 334 13.2 336 14
2011-01-27 08:29:15 51°19.971 2°50.86 334.4 13.3 336 14.4
2011-01-27 08:29:21 51°19.992 2°50.846 334.7 13.4 336 14.3
2011-01-27 08:29:26 51°20.009 2°50.833 334.4 13.4 336 15.1
2011-01-27 08:29:31 51°20.025 2°50.821 335.2 13.2 336 14.8
2011-01-27 08:29:36 51°20.042 2°50.81 335.5 13.1 336 14
2011-01-27 08:29:40 51°20.055 2°50.801 334.7 12.9 336 14
2011-01-27 08:29:46 51°20.075 2°50.788 335.2 13 338 14.5
2011-01-27 08:29:51 51°20.092 2°50.777 335.9 13.1 338 14.9
2011-01-27 08:29:55 51°20.105 2°50.768 336.2 13.3 337 14.9
2011-01-27 08:30:01 51°20.126 2°50.753 336.2 13.4 336 15.4
2011-01-27 08:30:06 51°20.143 2°50.742 335.7 13.5 337 15.3
2011-01-27 08:30:11 51°20.16 2°50.73 335.4 13.5 337 15.6
2011-01-27 08:30:16 51°20.177 2°50.718 335.2 13.5 337 15.7
2011-01-27 08:30:21 51°20.194 2°50.706 336 13.5 336 15.9
2011-01-27 08:30:26 51°20.212 2°50.695 335.3 13.5 338 16.5
2011-01-27 08:30:31 51°20.229 2°50.683 336.4 13.6 336 16.8
2011-01-27 08:30:35 51°20.243 2°50.675 336.6 13.4 338 16.4
2011-01-27 08:30:41 51°20.264 2°50.66 335.8 13.5 336 16.9
2011-01-27 08:30:46 51°20.281 2°50.649 336.1 13.6 337 17.2
2011-01-27 08:30:51 51°20.298 2°50.636 335.4 13.4 335 17.1
2011-01-27 08:30:56 51°20.315 2°50.624 335.1 13.4 335 17.2
2011-01-27 08:31:01 51°20.331 2°50.611 334.7 13.4 335 17.6
2011-01-27 08:31:06 51°20.349 2°50.599 334.3 13.5 337 17.7
2011-01-27 08:31:11 51°20.366 2°50.588 335.4 13.4 337 17.4
2011-01-27 08:31:16 51°20.383 2°50.577 335.7 13.2 337 17.7
2011-01-27 08:31:21 51°20.4 2°50.564 336.1 13.4 335 18.4
2011-01-27 08:31:26 51°20.417 2°50.553 336.1 13.3 336 18.5
2011-01-27 08:31:31 51°20.434 2°50.541 335.8 13.5 337 19.1
2011-01-27 08:31:35 51°20.448 2°50.532 336.1 13.5 335 18.8
2011-01-27 08:31:41 51°20.468 2°50.516 334.7 13.5 335 18.8
2011-01-27 08:31:46 51°20.485 2°50.504 334.3 13.5 336 18.7
2011-01-27 08:31:51 51°20.501 2°50.491 334.6 13.3 336 18.7
2011-01-27 08:31:55 51°20.514 2°50.48 334.6 13.4 335 20.1
2011-01-27 08:32:01 51°20.535 2°50.465 335.2 13.4 335 20.2
2011-01-27 08:32:06 51°20.551 2°50.453 334.9 13.3 335 21.2
2011-01-27 08:32:11 51°20.567 2°50.44 335.4 13 334 20.2
2011-01-27 08:32:16 51°20.583 2°50.429 334.8 12.8 336 20.2
2011-01-27 08:32:21 51°20.6 2°50.417 334.9 12.9 336 20.9
2011-01-27 08:32:26 51°20.616 2°50.406 334.7 12.9 337 20.8
2011-01-27 08:32:31 51°20.633 2°50.394 335.7 13 336 21
2011-01-27 08:32:36 51°20.649 2°50.382 335.5 12.9 335 21.1
2011-01-27 08:32:41 51°20.665 2°50.37 335.8 13 334 22.4
2011-01-27 08:32:46 51°20.682 2°50.357 335 12.9 335 22.9
2011-01-27 08:32:51 51°20.698 2°50.344 334.9 13 335 22.7
2011-01-27 08:32:56 51°20.714 2°50.333 334.7 13.2 335 23.4
2011-01-27 08:33:01 51°20.731 2°50.32 335.1 13.1 334 23.2
2011-01-27 08:33:06 51°20.747 2°50.308 334.7 13.1 335 22.9
2011-01-27 08:33:11 51°20.764 2°50.295 334.6 13.2 335 23.8
2011-01-27 08:33:16 51°20.78 2°50.283 335.1 13.2 335 23.6
2011-01-27 08:33:21 51°20.797 2°50.271 335.3 13.4 336 24.1
2011-01-27 08:33:26 51°20.814 2°50.258 334.8 13.3 335 24.1
2011-01-27 08:33:31 51°20.83 2°50.246 335.8 13.4 335 24.6
2011-01-27 08:33:35 51°20.844 2°50.236 335.4 13.3 335 24.3
2011-01-27 08:33:41 51°20.864 2°50.221 335.5 13.4 335 24
2011-01-27 08:33:46 51°20.881 2°50.209 335.7 13.4 335 23.6
2011-01-27 08:33:51 51°20.897 2°50.198 335.7 13.1 336 23.9
2011-01-27 08:33:56 51°20.914 2°50.186 336.2 13.1 335 24.3
2011-01-27 08:34:01 51°20.931 2°50.174 336.6 13.2 336 24.8
2011-01-27 08:34:06 51°20.947 2°50.161 336.1 13.1 333 24.5
2011-01-27 08:34:11 51°20.964 2°50.148 334.9 13.2 334 24.9
2011-01-27 08:34:16 51°20.98 2°50.136 334.7 13.1 336 23.9
2011-01-27 08:34:20 51°20.994 2°50.125 335.2 12.9 335 24
2011-01-27 08:34:26 51°21.013 2°50.111 335.8 13.1 334 25.3
2011-01-27 08:34:31 51°21.03 2°50.099 335.2 13 335 24.8
2011-01-27 08:34:35 51°21.042 2°50.089 335.1 12.9 335 24.1
2011-01-27 08:34:41 51°21.062 2°50.074 334.8 13 335 24.4
2011-01-27 08:34:46 51°21.078 2°50.062 335.2 13 335 24.4
2011-01-27 08:34:51 51°21.095 2°50.05 335.6 13.2 336 24.8
2011-01-27 08:34:56 51°21.112 2°50.037 335 13.4 335 25
2011-01-27 08:35:01 51°21.129 2°50.025 335.4 13.4 335 24.5
2011-01-27 08:35:06 51°21.146 2°50.012 335.2 13.4 335 24.7
2011-01-27 08:35:11 51°21.162 2°49.999 335.4 13.3 335 24.1
2011-01-27 08:35:16 51°21.179 2°49.986 334.8 13.4 334 24.9
2011-01-27 08:35:21 51°21.196 2°49.974 334.8 13.5 335 24.1
2011-01-27 08:35:26 51°21.213 2°49.961 334.7 13.5 335 23.8
2011-01-27 08:35:31 51°21.23 2°49.947 335.3 13.6 334 24.7
2011-01-27 08:35:35 51°21.243 2°49.937 335.1 13.5 334 24.2
2011-01-27 08:35:41 51°21.264 2°49.923 335.6 13.3 336 23.5
2011-01-27 08:35:46 51°21.281 2°49.91 335.1 13.5 334 24.2
2011-01-27 08:35:51 51°21.297 2°49.897 335.3 13.5 335 23.9
2011-01-27 08:35:55 51°21.311 2°49.887 335.4 13.6 335 24.1
2011-01-27 08:36:01 51°21.332 2°49.872 335.7 13.4 336 23.5
2011-01-27 08:36:06 51°21.348 2°49.86 335.7 13.4 336 23.4
2011-01-27 08:36:11 51°21.366 2°49.848 336.2 13.5 336 23.2
2011-01-27 08:36:16 51°21.383 2°49.836 336.7 13.4 335 22.9
2011-01-27 08:36:20 51°21.396 2°49.826 335.9 13.4 335 22.9
2011-01-27 08:36:26 51°21.417 2°49.811 335.4 13.6 335 23.5
2011-01-27 08:36:31 51°21.434 2°49.798 335.8 13.5 335 23.8
2011-01-27 08:36:35 51°21.447 2°49.788 335.5 13.5 337 23.4
2011-01-27 08:36:41 51°21.468 2°49.773 336.6 13.6 335 23.5
2011-01-27 08:36:46 51°21.485 2°49.761 336.6 13.4 335 22.7
2011-01-27 08:36:51 51°21.502 2°49.749 335.8 13.4 337 22.7
2011-01-27 08:36:56 51°21.519 2°49.737 336.4 13.5 336 23
2011-01-27 08:37:01 51°21.537 2°49.725 336.7 13.6 337 22.8
2011-01-27 08:37:06 51°21.554 2°49.713 337 13.5 337 22.8
2011-01-27 08:37:11 51°21.571 2°49.7 337.1 13.5 335 22.4
2011-01-27 08:37:16 51°21.588 2°49.688 336.5 13.6 337 23.2
2011-01-27 08:37:21 51°21.606 2°49.676 336.4 13.6 337 23
2011-01-27 08:37:26 51°21.622 2°49.665 337.3 13.2 336 22.7
2011-01-27 08:37:31 51°21.639 2°49.653 336.3 13.1 336 23.5
2011-01-27 08:37:36 51°21.655 2°49.641 336.4 13 337 24.5
2011-01-27 08:37:41 51°21.672 2°49.63 336.1 13.3 336 24.4
2011-01-27 08:37:46 51°21.689 2°49.617 335.8 13.3 335 23.8
2011-01-27 08:37:51 51°21.706 2°49.605 335.4 13.5 336 24.1
2011-01-27 08:37:56 51°21.723 2°49.593 335.4 13.6 334 23.7
2011-01-27 08:38:01 51°21.74 2°49.581 335.4 13.4 337 23.4
2011-01-27 08:38:06 51°21.757 2°49.569 335.7 13.3 337 23.7
2011-01-27 08:38:11 51°21.774 2°49.557 335.7 13.4 337 24
2011-01-27 08:38:15 51°21.788 2°49.547 336.4 13.4 337 24.3
2011-01-27 08:38:21 51°21.808 2°49.533 336.9 13.3 334 24.3
2011-01-27 08:38:26 51°21.825 2°49.521 335.9 13.3 337 24.7
2011-01-27 08:38:31 51°21.841 2°49.509 335.7 13.3 335 24.2
2011-01-27 08:38:36 51°21.859 2°49.497 335 13.5 336 24.5
2011-01-27 08:38:41 51°21.876 2°49.484 335.3 13.6 335 25.1
2011-01-27 08:38:46 51°21.893 2°49.472 335.7 13.4 336 24.7
2011-01-27 08:38:51 51°21.91 2°49.461 336 13.4 337 24.2
2011-01-27 08:38:56 51°21.927 2°49.449 336 13.4 337 24.3
2011-01-27 08:39:01 51°21.944 2°49.437 336 13.5 335 24.6
2011-01-27 08:39:06 51°21.961 2°49.425 335.2 13.6 337 24.8
2011-01-27 08:39:11 51°21.978 2°49.413 335.4 13.6 336 24.7
2011-01-27 08:39:16 51°21.996 2°49.401 335.6 13.5 337 24.6
2011-01-27 08:39:21 51°22.013 2°49.389 336.1 13.6 337 24.5
2011-01-27 08:39:26 51°22.03 2°49.377 335.4 13.7 336 24.2
2011-01-27 08:39:31 51°22.048 2°49.364 335.1 13.7 336 24.9
2011-01-27 08:39:36 51°22.065 2°49.352 334.6 13.7 336 24.1
2011-01-27 08:39:41 51°22.082 2°49.34 334.7 13.7 336 23.9
2011-01-27 08:39:46 51°22.099 2°49.328 334.7 13.4 336 24
2011-01-27 08:39:51 51°22.116 2°49.316 334.6 13.5 336 24.1
2011-01-27 08:39:55 51°22.13 2°49.306 334.2 13.5 336 24.1
2011-01-27 08:40:01 51°22.149 2°49.291 334.6 13.3 335 24.7
2011-01-27 08:40:06 51°22.166 2°49.278 334.7 13.4 334 25.6
2011-01-27 08:40:11 51°22.183 2°49.265 334.2 13.4 335 25
2011-01-27 08:40:15 51°22.196 2°49.255 334 13.4 334 25.1
2011-01-27 08:40:21 51°22.217 2°49.24 334.5 13.4 335 24.4
2011-01-27 08:40:26 51°22.233 2°49.228 333.6 13.3 336 23.6
2011-01-27 08:40:31 51°22.251 2°49.216 335.1 13.3 335 24.1
2011-01-27 08:40:35 51°22.264 2°49.206 335.1 13.4 336 23.3
2011-01-27 08:40:41 51°22.284 2°49.192 335.1 13.3 336 23.3
2011-01-27 08:40:46 51°22.302 2°49.181 335.4 13.3 338 24.1
2011-01-27 08:40:51 51°22.319 2°49.169 335.4 13.5 337 24.7
2011-01-27 08:40:56 51°22.336 2°49.157 335.8 13.5 337 24.1
2011-01-27 08:41:01 51°22.353 2°49.146 335.9 13.4 337 23.9
2011-01-27 08:41:06 51°22.37 2°49.133 335.4 13.4 336 25
2011-01-27 08:41:11 51°22.387 2°49.121 335.5 13.5 335 24.2
2011-01-27 08:41:16 51°22.404 2°49.109 334 13.2 336 22.3
2011-01-27 08:41:20 51°22.417 2°49.098 334.1 13.3 334 22.6
2011-01-27 08:41:26 51°22.437 2°49.083 333.6 13.4 336 22.4
2011-01-27 08:41:31 51°22.454 2°49.071 334.3 13.4 335 22.2
2011-01-27 08:41:35 51°22.467 2°49.061 334.3 13.2 334 20.9
2011-01-27 08:41:41 51°22.487 2°49.046 334 13.3 334 20
2011-01-27 08:41:46 51°22.504 2°49.033 333.3 13.2 335 18.6
2011-01-27 08:41:51 51°22.52 2°49.021 334 13.1 335 18
2011-01-27 08:41:56 51°22.536 2°49.007 334.8 13.1 333 19.3
2011-01-27 08:42:01 51°22.553 2°48.995 334.1 13.3 336 18.4
2011-01-27 08:42:06 51°22.57 2°48.983 334.1 13.4 336 19.5
2011-01-27 08:42:11 51°22.587 2°48.97 334.9 13.6 335 20
2011-01-27 08:42:15 51°22.6 2°48.961 335.9 13.5 337 18.1
2011-01-27 08:42:21 51°22.621 2°48.946 334.7 13.5 336 17.8
2011-01-27 08:42:26 51°22.638 2°48.934 334.7 13.6 336 16.9
2011-01-27 08:42:31 51°22.656 2°48.923 335.4 13.6 338 17.9
2011-01-27 08:42:36 51°22.672 2°48.91 335.8 13.4 333 16.6
2011-01-27 08:42:40 51°22.686 2°48.901 335 13.4 337 15.5
2011-01-27 08:42:46 51°22.706 2°48.885 334.2 13.3 335 14.3
2011-01-27 08:42:51 51°22.723 2°48.873 334.5 13.4 336 14.9
2011-01-27 08:42:55 51°22.737 2°48.864 334.7 13.2 337 16.1
2011-01-27 08:43:01 51°22.757 2°48.849 335 13.4 335 16.8
2011-01-27 08:43:06 51°22.775 2°48.838 335.2 13.5 338 17.1
2011-01-27 08:43:11 51°22.792 2°48.824 334.4 13.5 335 17
2011-01-27 08:43:16 51°22.809 2°48.813 336.1 13.5 336 17.1
2011-01-27 08:43:20 51°22.822 2°48.803 334.3 13.6 335 17.1
2011-01-27 08:43:26 51°22.843 2°48.788 334.4 13.5 336 16.2
2011-01-27 08:43:31 51°22.86 2°48.775 334 13.3 335 15.7
2011-01-27 08:43:35 51°22.873 2°48.765 334.3 13.5 334 16.2
2011-01-27 08:43:41 51°22.893 2°48.75 332.8 13.5 336 15.7
2011-01-27 08:43:46 51°22.911 2°48.737 334.2 13.6 334 16.6
2011-01-27 08:43:51 51°22.927 2°48.725 334 13.4 337 17.6
2011-01-27 08:43:56 51°22.944 2°48.713 334.8 13.5 335 18.8
2011-01-27 08:44:01 51°22.961 2°48.702 334.9 13.3 338 17.6
2011-01-27 08:44:06 51°22.978 2°48.69 334.8 12.9 337 17.5
2011-01-27 08:44:11 51°22.994 2°48.678 336.1 13.1 336 -999
2011-01-27 08:44:16 51°23.011 2°48.666 335.1 13.1 336 18.1
2011-01-27 08:44:21 51°23.027 2°48.653 335 13.2 332 18.9
2011-01-27 08:44:26 51°23.044 2°48.641 334.1 13.3 335 17.1
2011-01-27 08:44:31 51°23.061 2°48.628 333.5 13.4 333 17.2
2011-01-27 08:44:35 51°23.074 2°48.617 332.5 13.3 334 18.1
2011-01-27 08:44:41 51°23.094 2°48.602 334.3 13.3 334 18.9
2011-01-27 08:44:46 51°23.111 2°48.588 332.8 13.4 333 20.1
2011-01-27 08:44:51 51°23.128 2°48.576 334.6 13.4 334 19.9
2011-01-27 08:44:55 51°23.14 2°48.564 333.3 13.4 334 19.9
2011-01-27 08:45:01 51°23.161 2°48.55 334.3 13.4 334 20.5
2011-01-27 08:45:06 51°23.178 2°48.538 333.6 13.5 336 20.9
2011-01-27 08:45:11 51°23.195 2°48.526 334.5 13.7 335 21.6
2011-01-27 08:45:16 51°23.212 2°48.514 334.4 13.3 336 21.3
2011-01-27 08:45:20 51°23.226 2°48.504 334.7 13.5 336 22.1
2011-01-27 08:45:26 51°23.246 2°48.489 333.9 13.4 337 21.8
2011-01-27 08:45:31 51°23.263 2°48.476 335.4 13.5 334 20.8
2011-01-27 08:45:35 51°23.277 2°48.466 334.2 13.6 336 19.5
2011-01-27 08:45:41 51°23.297 2°48.451 335.4 13.3 335 18.6
2011-01-27 08:45:46 51°23.313 2°48.437 334 13.4 335 20
2011-01-27 08:45:51 51°23.331 2°48.426 335.4 13.3 336 20.1
2011-01-27 08:45:56 51°23.347 2°48.413 333.6 13.4 335 21.8
2011-01-27 08:46:01 51°23.364 2°48.401 335.5 13.4 336 22.2
2011-01-27 08:46:06 51°23.381 2°48.39 335.9 13.2 337 22.3
2011-01-27 08:46:11 51°23.398 2°48.378 335.4 13.2 335 22.1
2011-01-27 08:46:16 51°23.415 2°48.366 335.5 13.3 337 22.9
2011-01-27 08:46:21 51°23.432 2°48.354 335.7 13.3 336 22.9
2011-01-27 08:46:26 51°23.449 2°48.343 336.5 13.3 337 22.9
2011-01-27 08:46:31 51°23.466 2°48.331 336.2 13.3 337 22.9
2011-01-27 08:46:35 51°23.48 2°48.322 336.5 13.4 337 23.2
2011-01-27 08:46:41 51°23.5 2°48.308 336.3 13.4 336 23.3
2011-01-27 08:46:46 51°23.517 2°48.296 335.2 13.2 338 22.9
2011-01-27 08:46:51 51°23.534 2°48.284 336.5 13.4 334 23.2
2011-01-27 08:46:55 51°23.547 2°48.276 335.8 13.2 338 22.3
2011-01-27 08:47:01 51°23.567 2°48.261 335.5 13.1 335 22.6
2011-01-27 08:47:06 51°23.584 2°48.249 335.2 13.2 336 22.2
2011-01-27 08:47:11 51°23.601 2°48.237 334.7 13.1 335 22.3
2011-01-27 08:47:15 51°23.614 2°48.228 335 13 336 23.6
2011-01-27 08:47:21 51°23.634 2°48.212 335.4 13.1 334 22.6
2011-01-27 08:47:26 51°23.65 2°48.202 334.7 13 338 23.6
2011-01-27 08:47:31 51°23.667 2°48.189 335.6 13 335 24.1
2011-01-27 08:47:36 51°23.684 2°48.179 336.8 13.1 338 23.3
2011-01-27 08:47:40 51°23.697 2°48.168 335.4 13 336 22.2
2011-01-27 08:47:46 51°23.717 2°48.155 335.3 12.9 339 22.1
2011-01-27 08:47:51 51°23.733 2°48.144 336.9 13.1 336 22.2
2011-01-27 08:47:55 51°23.747 2°48.134 335 13.2 338 22.1
2011-01-27 08:48:01 51°23.767 2°48.12 335.9 13.3 335 22.6
2011-01-27 08:48:06 51°23.785 2°48.11 335.6 13.4 339 22
2011-01-27 08:48:11 51°23.801 2°48.097 335.2 13.3 335 20.8
2011-01-27 08:48:16 51°23.818 2°48.086 335 13.3 339 20.8
2011-01-27 08:48:21 51°23.835 2°48.074 336.3 13.3 336 21.7
2011-01-27 08:48:26 51°23.853 2°48.063 336 13.2 338 21.9
2011-01-27 08:48:31 51°23.869 2°48.05 335.4 13.3 334 21.6
2011-01-27 08:48:36 51°23.886 2°48.04 334.3 13.3 338 21.7
2011-01-27 08:48:41 51°23.903 2°48.027 336.8 13.3 334 20.8
2011-01-27 08:48:46 51°23.919 2°48.016 335.1 13 338 18.9
2011-01-27 08:48:51 51°23.935 2°48.004 335.4 12.8 334 19.2
2011-01-27 08:48:55 51°23.948 2°47.994 335 13 336 20.9
2011-01-27 08:49:01 51°23.968 2°47.98 334.7 13.1 336 21.1
2011-01-27 08:49:06 51°23.985 2°47.967 335.5 13.1 334 21.4
2011-01-27 08:49:11 51°24.002 2°47.956 334.4 13.1 336 22.3
2011-01-27 08:49:15 51°24.015 2°47.945 334.3 13.1 335 22
2011-01-27 08:49:21 51°24.035 2°47.932 334.2 13.1 337 23.1
2011-01-27 08:49:26 51°24.052 2°47.92 335.1 13.1 336 24.4
2011-01-27 08:49:31 51°24.069 2°47.907 334.9 13.2 335 24
2011-01-27 08:49:36 51°24.086 2°47.895 334.3 13.3 338 24.7
2011-01-27 08:49:41 51°24.102 2°47.884 336 13.3 336 24.3
2011-01-27 08:49:46 51°24.12 2°47.872 334.7 13.3 340 25.2
2011-01-27 08:49:51 51°24.137 2°47.861 336.4 13.3 336 25.8
2011-01-27 08:49:55 51°24.15 2°47.851 334.5 13.4 338 26.7
2011-01-27 08:50:01 51°24.171 2°47.837 336.1 13.4 335 27.1
2011-01-27 08:50:06 51°24.188 2°47.826 335.1 13.6 338 27.3
2011-01-27 08:50:11 51°24.205 2°47.814 336.4 13.2 337 26.6
2011-01-27 08:50:16 51°24.221 2°47.802 335.7 13.1 336 27.4
2011-01-27 08:50:21 51°24.238 2°47.791 335.7 13.2 337 27.2
2011-01-27 08:50:26 51°24.255 2°47.779 336 13.1 336 26.8
2011-01-27 08:50:31 51°24.272 2°47.769 336.1 13 339 26.4
2011-01-27 08:50:35 51°24.285 2°47.759 336.4 13.2 338 25.9
2011-01-27 08:50:41 51°24.306 2°47.747 335.8 13.2 339 24.1
2011-01-27 08:50:46 51°24.323 2°47.734 335.7 13.3 337 23.9
2011-01-27 08:50:51 51°24.339 2°47.723 336.1 13 337 23.2
2011-01-27 08:50:56 51°24.355 2°47.71 334.3 13.1 333 25.4
2011-01-27 08:51:01 51°24.372 2°47.698 333.4 13.2 335 26
2011-01-27 08:51:06 51°24.389 2°47.685 333.3 13.1 335 25.8
2011-01-27 08:51:11 51°24.405 2°47.672 334.1 13.4 333 26.6
2011-01-27 08:51:15 51°24.419 2°47.663 332.7 13.5 338 27.2
2011-01-27 08:51:21 51°24.439 2°47.648 334.5 13.4 334 26.9
2011-01-27 08:51:26 51°24.456 2°47.638 334.7 13.2 339 27
2011-01-27 08:51:31 51°24.473 2°47.624 335.1 13.4 333 27.8
2011-01-27 08:51:36 51°24.49 2°47.613 333.8 13.3 337 29.1
2011-01-27 08:51:41 51°24.507 2°47.6 335.2 13.6 333 29.1
2011-01-27 08:51:46 51°24.524 2°47.589 334.4 13.3 340 28.8
2011-01-27 08:51:51 51°24.541 2°47.577 335.9 13.5 336 29.9
2011-01-27 08:51:55 51°24.555 2°47.569 335.1 13.6 339 30.8
2011-01-27 08:52:01 51°24.576 2°47.554 334.9 13.7 337 30.9
2011-01-27 08:52:06 51°24.594 2°47.543 336.2 13.6 337 30.6
2011-01-27 08:52:11 51°24.611 2°47.53 335.2 13.7 335 30.8
2011-01-27 08:52:16 51°24.628 2°47.52 335.2 13.5 338 30.9
2011-01-27 08:52:21 51°24.645 2°47.506 334.6 13.6 335 31
2011-01-27 08:52:26 51°24.663 2°47.495 333.7 13.7 338 31.3
2011-01-27 08:52:31 51°24.68 2°47.482 335.3 13.7 336 31.3
2011-01-27 08:52:36 51°24.697 2°47.471 334.6 13.7 337 31.5
2011-01-27 08:52:41 51°24.714 2°47.459 335.7 13.3 336 31.1
2011-01-27 08:52:46 51°24.731 2°47.448 335.7 13.1 337 31.7
2011-01-27 08:52:51 51°24.748 2°47.436 335.1 13.2 337 32.2
2011-01-27 08:52:56 51°24.765 2°47.426 335.7 13 337 31.1
2011-01-27 08:53:01 51°24.782 2°47.414 335.2 13.1 337 31.2
2011-01-27 08:53:06 51°24.798 2°47.402 334.4 13 336 30.5
2011-01-27 08:53:11 51°24.815 2°47.39 334.8 13 337 31.7
2011-01-27 08:53:16 51°24.832 2°47.379 334.8 13 336 31.2
2011-01-27 08:53:21 51°24.848 2°47.367 334.2 13.3 335 32
2011-01-27 08:53:26 51°24.865 2°47.355 334.1 13.2 336 31.8
2011-01-27 08:53:31 51°24.882 2°47.343 334.6 13.1 336 31.2
2011-01-27 08:53:36 51°24.898 2°47.331 334.3 13.3 335 32.7
2011-01-27 08:53:41 51°24.915 2°47.32 334.7 13.3 337 31.4
2011-01-27 08:53:46 51°24.932 2°47.308 333.8 13.3 336 30.6
2011-01-27 08:53:51 51°24.949 2°47.296 335.2 13.5 338 30.9
2011-01-27 08:53:55 51°24.963 2°47.286 335.5 13.6 336 30.5
2011-01-27 08:54:01 51°24.984 2°47.274 335.4 13.6 341 29.4
2011-01-27 08:54:06 51°25.001 2°47.262 336.5 13.5 337 29.8
2011-01-27 08:54:11 51°25.019 2°47.252 336.3 13.5 340 28.9
2011-01-27 08:54:16 51°25.036 2°47.24 336.1 13.6 337 26.9
2011-01-27 08:54:21 51°25.054 2°47.229 335.2 13.5 338 26
2011-01-27 08:54:26 51°25.071 2°47.217 335.3 13.5 336 26.2
2011-01-27 08:54:31 51°25.089 2°47.205 334.7 13.7 338 25.8
2011-01-27 08:54:35 51°25.103 2°47.195 335.3 13.9 337 25.8
2011-01-27 08:54:41 51°25.124 2°47.182 335.8 13.6 337 25.8
2011-01-27 08:54:46 51°25.141 2°47.169 336.6 13.7 335 25.6
2011-01-27 08:54:51 51°25.159 2°47.158 334.7 13.6 339 25.1
2011-01-27 08:54:56 51°25.175 2°47.145 335 13.6 335 25.4
2011-01-27 08:55:01 51°25.193 2°47.133 335.7 13.8 338 26
2011-01-27 08:55:06 51°25.211 2°47.122 336.3 13.9 337 25.8
2011-01-27 08:55:11 51°25.229 2°47.111 335 13.6 339 25.8
2011-01-27 08:55:16 51°25.246 2°47.099 337.2 13.7 337 26.1
2011-01-27 08:55:21 51°25.264 2°47.089 336.4 13.7 340 25.6
2011-01-27 08:55:26 51°25.281 2°47.076 336.4 13.7 336 26.5
2011-01-27 08:55:31 51°25.299 2°47.066 335.9 13.6 338 26.9
2011-01-27 08:55:36 51°25.316 2°47.053 336.1 13.3 335 25.7
2011-01-27 08:55:41 51°25.333 2°47.044 335.6 13.2 340 25.1
2011-01-27 08:55:46 51°25.35 2°47.032 335.5 13.3 337 25.5
2011-01-27 08:55:51 51°25.367 2°47.02 335.6 13.3 336 26.6
2011-01-27 08:55:55 51°25.38 2°47.01 335.7 13.5 334 26.5
2011-01-27 08:56:01 51°25.401 2°46.996 334 13.5 338 25.7
2011-01-27 08:56:06 51°25.418 2°46.984 334.6 13.5 337 25.8
2011-01-27 08:56:11 51°25.436 2°46.973 335.9 13.5 338 26.1
2011-01-27 08:56:15 51°25.45 2°46.962 334.9 13.6 335 26.6
2011-01-27 08:56:21 51°25.471 2°46.949 335.8 13.5 337 24.8
2011-01-27 08:56:26 51°25.488 2°46.937 333.8 13.3 336 25.4
2011-01-27 08:56:31 51°25.505 2°46.925 335.4 13.4 337 26.1
2011-01-27 08:56:36 51°25.522 2°46.913 334.5 13.4 337 26.3
2011-01-27 08:56:41 51°25.539 2°46.902 334.7 13.4 339 25.9
2011-01-27 08:56:46 51°25.557 2°46.89 336.2 13.5 337 24.2
2011-01-27 08:56:51 51°25.575 2°46.879 335.5 13.5 338 22.5
2011-01-27 08:56:55 51°25.589 2°46.869 335.2 13.5 337 24.1
2011-01-27 08:57:01 51°25.609 2°46.854 335.6 13.7 335 24.2
2011-01-27 08:57:06 51°25.627 2°46.843 334.3 13.6 339 23.8
2011-01-27 08:57:11 51°25.644 2°46.829 334.9 13.7 334 24.4
2011-01-27 08:57:16 51°25.662 2°46.819 334 13.9 338 24.8
2011-01-27 08:57:21 51°25.68 2°46.806 334.6 13.7 336 24.3
2011-01-27 08:57:26 51°25.697 2°46.794 334.7 13.7 336 24.2
2011-01-27 08:57:31 51°25.714 2°46.781 334.7 13.6 336 22.5
2011-01-27 08:57:35 51°25.728 2°46.772 334.7 13.5 336 24.1
2011-01-27 08:57:41 51°25.749 2°46.757 334.8 13.5 335 23.8
2011-01-27 08:57:46 51°25.766 2°46.745 334.3 13.6 336 23.8
2011-01-27 08:57:51 51°25.783 2°46.733 334.5 13.7 338 23.1
2011-01-27 08:57:55 51°25.797 2°46.723 335.4 13.8 336 22.8
2011-01-27 08:58:01 51°25.818 2°46.708 335.8 13.7 336 22
2011-01-27 08:58:06 51°25.835 2°46.695 334.9 13.7 336 21.2
2011-01-27 08:58:11 51°25.852 2°46.683 334.4 13.7 336 21.7
2011-01-27 08:58:16 51°25.869 2°46.67 334.2 13.7 335 22.9
2011-01-27 08:58:21 51°25.886 2°46.657 334 13.6 334 24.4
2011-01-27 08:58:26 51°25.903 2°46.644 333.7 13.4 335 24.5
2011-01-27 08:58:31 51°25.92 2°46.632 333.4 13.5 335 23.3
2011-01-27 08:58:36 51°25.937 2°46.619 333.1 13.6 335 23.5
2011-01-27 08:58:41 51°25.954 2°46.606 334 13.8 335 22.2
2011-01-27 08:58:46 51°25.972 2°46.596 334.7 13.5 337 22.8
2011-01-27 08:58:51 51°25.989 2°46.581 335.5 13.6 333 23.9
2011-01-27 08:58:55 51°26.003 2°46.573 334.9 13.8 339 25.1
2011-01-27 08:59:01 51°26.024 2°46.559 336.1 13.6 338 25.9
2011-01-27 08:59:06 51°26.041 2°46.546 336 13.6 336 25.8
2011-01-27 08:59:11 51°26.059 2°46.534 335.8 13.5 336 24.4
2011-01-27 08:59:16 51°26.075 2°46.521 334.5 13.4 333 24.2
2011-01-27 08:59:21 51°26.092 2°46.509 333.6 13.5 336 24.8
2011-01-27 08:59:26 51°26.109 2°46.495 333.1 13.6 335 24.7
2011-01-27 08:59:31 51°26.126 2°46.483 334.2 13.6 337 23.4
2011-01-27 08:59:35 51°26.14 2°46.473 334 13.4 334 25.9
2011-01-27 08:59:41 51°26.161 2°46.458 336.1 13.5 338 26
2011-01-27 08:59:46 51°26.178 2°46.446 334.7 13.5 338 26.2
2011-01-27 08:59:51 51°26.196 2°46.436 337 13.6 338 25.2
2011-01-27 08:59:56 51°26.213 2°46.423 335.4 13.5 336 26.6
2011-01-27 09:00:01 51°26.23 2°46.411 335.5 13.7 336 26.9
2011-01-27 09:00:06 51°26.247 2°46.399 334.5 13.6 337 25.8
2011-01-27 09:00:11 51°26.265 2°46.387 335 13.6 338 25.1
2011-01-27 09:00:16 51°26.281 2°46.374 335.4 13.5 335 25.4
2011-01-27 09:00:21 51°26.298 2°46.362 336.1 13.2 334 -999
2011-01-27 09:00:26 51°26.314 2°46.349 334.6 13.2 335 26.5
2011-01-27 09:00:31 51°26.331 2°46.338 334.7 13 338 26.7
2011-01-27 09:00:36 51°26.347 2°46.324 335 13.1 333 27
2011-01-27 09:00:41 51°26.364 2°46.314 334.4 13.2 339 27.1
2011-01-27 09:00:46 51°26.38 2°46.3 334.7 13.2 334 28
2011-01-27 09:00:51 51°26.398 2°46.29 334.8 13.3 338 27.8
2011-01-27 09:00:56 51°26.415 2°46.277 334.9 13.4 334 28
2011-01-27 09:01:01 51°26.432 2°46.267 335.8 13.1 338 28
2011-01-27 09:01:06 51°26.448 2°46.254 335.2 13 336 29.4
2011-01-27 09:01:11 51°26.465 2°46.243 336.1 13.1 337 29.3
2011-01-27 09:01:15 51°26.478 2°46.233 335.6 13.3 336 28.9
2011-01-27 09:01:21 51°26.498 2°46.22 335.8 13.2 338 28.4
2011-01-27 09:01:26 51°26.515 2°46.209 336.8 13.3 337 26.8
2011-01-27 09:01:31 51°26.533 2°46.198 335.7 13.5 338 27.6
2011-01-27 09:01:36 51°26.55 2°46.187 336.9 13.5 339 28.7
2011-01-27 09:01:41 51°26.567 2°46.175 337.4 13.5 336 28.9
2011-01-27 09:01:46 51°26.584 2°46.163 335.4 13.5 338 29.1
2011-01-27 09:01:51 51°26.601 2°46.152 336.8 13.2 337 29.1
2011-01-27 09:01:56 51°26.618 2°46.141 336.3 13.3 337 30.4
2011-01-27 09:02:01 51°26.635 2°46.129 336.4 13.5 335 30.2
2011-01-27 09:02:06 51°26.652 2°46.118 334.7 13 340 28.9
2011-01-27 09:02:11 51°26.669 2°46.108 337.1 12.9 337 29.7
2011-01-27 09:02:16 51°26.685 2°46.096 336.1 12.8 337 30.3
2011-01-27 09:02:21 51°26.702 2°46.086 336.9 13.1 338 30.4
2011-01-27 09:02:26 51°26.72 2°46.076 336.9 13.2 340 30.6
2011-01-27 09:02:31 51°26.737 2°46.064 337.3 13.4 338 30.7
2011-01-27 09:02:36 51°26.754 2°46.055 338 13.5 341 30.9
2011-01-27 09:02:41 51°26.772 2°46.043 338.4 13.5 339 31.1
2011-01-27 09:02:46 51°26.788 2°46.032 338.2 13.1 339 31.1
2011-01-27 09:02:51 51°26.805 2°46.022 338.2 13.2 339 32.2
2011-01-27 09:02:56 51°26.822 2°46.01 337.7 13.3 336 32.3
2011-01-27 09:03:01 51°26.84 2°46 337.6 13.3 339 31
2011-01-27 09:03:06 51°26.856 2°45.988 336.7 13.2 339 30.9
2011-01-27 09:03:11 51°26.874 2°45.977 338.3 13.4 338 30.9
2011-01-27 09:03:15 51°26.887 2°45.969 337.3 13.4 341 30.9
2011-01-27 09:03:21 51°26.909 2°45.957 339.5 13.6 340 30.8
2011-01-27 09:03:26 51°26.927 2°45.948 339.5 13.5 341 29.8
2011-01-27 09:03:31 51°26.944 2°45.937 339.4 13.7 340 30.2
2011-01-27 09:03:36 51°26.962 2°45.926 338.5 13.5 340 30.5
2011-01-27 09:03:41 51°26.979 2°45.917 340.1 13.4 341 31.4
2011-01-27 09:03:46 51°26.997 2°45.906 339.8 13.4 339 30.6
2011-01-27 09:03:51 51°27.014 2°45.896 339.2 13.5 342 30.7
2011-01-27 09:03:56 51°27.032 2°45.886 339.1 13.4 339 30.4
2011-01-27 09:04:01 51°27.049 2°45.875 338.3 13.5 340 31.1
2011-01-27 09:04:06 51°27.066 2°45.864 339.4 13.7 339 31.4
2011-01-27 09:04:11 51°27.084 2°45.854 338.5 13.6 341 30.3
2011-01-27 09:04:16 51°27.102 2°45.843 338.7 13.5 338 30.5
2011-01-27 09:04:21 51°27.119 2°45.832 338.4 13.4 339 30.4
2011-01-27 09:04:26 51°27.137 2°45.823 338.9 13.2 340 30
2011-01-27 09:04:31 51°27.155 2°45.813 338.1 13.5 340 30.7
2011-01-27 09:04:36 51°27.172 2°45.802 338.5 13.3 339 29.9
2011-01-27 09:04:41 51°27.189 2°45.793 338.5 13 341 29.2
2011-01-27 09:04:46 51°27.206 2°45.783 339.4 13 340 29.3
2011-01-27 09:04:51 51°27.223 2°45.772 339.1 13.1 340 30
2011-01-27 09:04:55 51°27.237 2°45.763 338 13 339 29.4
2011-01-27 09:05:01 51°27.257 2°45.75 337.5 13.2 338 29.9
2011-01-27 09:05:06 51°27.274 2°45.739 338.2 13.2 338 29.7
2011-01-27 09:05:11 51°27.291 2°45.729 337.1 13.3 340 30.4
2011-01-27 09:05:16 51°27.309 2°45.719 338.8 13.3 340 29.8
2011-01-27 09:05:21 51°27.326 2°45.708 338.5 13.4 341 28.6
2011-01-27 09:05:26 51°27.343 2°45.697 338.8 13.4 339 29.2
2011-01-27 09:05:31 51°27.361 2°45.687 338.7 13.7 340 29.6
2011-01-27 09:05:35 51°27.375 2°45.679 338.5 13.7 340 29.4
2011-01-27 09:05:41 51°27.396 2°45.666 338.9 13.6 340 28.7
2011-01-27 09:05:46 51°27.414 2°45.656 339 13.6 338 28.1
2011-01-27 09:05:51 51°27.431 2°45.644 336.9 13.4 338 28.7
2011-01-27 09:05:56 51°27.448 2°45.634 338.2 13.1 339 29
2011-01-27 09:06:01 51°27.465 2°45.622 336.7 13.5 338 29.7
2011-01-27 09:06:06 51°27.483 2°45.612 337.7 13.4 341 29.6
2011-01-27 09:06:11 51°27.501 2°45.602 338.6 13.5 338 29.3
2011-01-27 09:06:15 51°27.515 2°45.593 338 13.6 341 29.1
2011-01-27 09:06:21 51°27.536 2°45.581 339 13.6 338 28.5
2011-01-27 09:06:26 51°27.554 2°45.572 338.6 13.5 342 29.1
2011-01-27 09:06:31 51°27.572 2°45.56 337.9 13.7 337 29.5
2011-01-27 09:06:36 51°27.589 2°45.55 338.7 13.5 341 28.1
2011-01-27 09:06:41 51°27.606 2°45.539 338.5 13.6 338 28.9
2011-01-27 09:06:46 51°27.624 2°45.528 338.1 13.6 341 28.6
2011-01-27 09:06:51 51°27.642 2°45.517 338.8 13.6 337 27.8
2011-01-27 09:06:55 51°27.656 2°45.509 338.6 13.3 342 26.9
2011-01-27 09:07:01 51°27.675 2°45.496 338.3 12.9 337 27.5
2011-01-27 09:07:06 51°27.693 2°45.487 337.6 12.9 339 27.4
2011-01-27 09:07:11 51°27.709 2°45.475 337.6 12.8 338 -999
2011-01-27 09:07:15 51°27.723 2°45.466 338.2 13.2 337 28
2011-01-27 09:07:21 51°27.743 2°45.454 337.8 13.3 340 28.1
2011-01-27 09:07:26 51°27.76 2°45.443 337.4 13.4 339 28.3
2011-01-27 09:07:31 51°27.777 2°45.433 339.5 13.5 341 27.2
2011-01-27 09:07:36 51°27.795 2°45.423 338.6 13.5 340 27.3
2011-01-27 09:07:41 51°27.812 2°45.413 339.3 13.4 340 28.1
2011-01-27 09:07:46 51°27.83 2°45.402 339.2 13.4 340 28.6
2011-01-27 09:07:51 51°27.847 2°45.392 338.9 13.3 340 28
2011-01-27 09:07:55 51°27.861 2°45.384 339 13.4 339 27.9
2011-01-27 09:08:01 51°27.882 2°45.372 338.2 13.5 341 27.9
2011-01-27 09:08:06 51°27.899 2°45.36 338.6 13.3 337 27.7
2011-01-27 09:08:11 51°27.916 2°45.35 337.9 13.5 340 27.8
2011-01-27 09:08:16 51°27.933 2°45.338 337.8 13.4 338 26.9
2011-01-27 09:08:21 51°27.951 2°45.329 338.4 13.4 341 26.9
2011-01-27 09:08:26 51°27.969 2°45.318 338.3 13.5 337 28.7
2011-01-27 09:08:31 51°27.986 2°45.308 339 13.4 341 28.8
2011-01-27 09:08:36 51°28.003 2°45.297 338.3 13.3 338 28
2011-01-27 09:08:41 51°28.02 2°45.288 339.1 13.4 341 27.5
2011-01-27 09:08:46 51°28.037 2°45.277 338.9 13.4 340 27.6
2011-01-27 09:08:51 51°28.055 2°45.267 338.5 13.5 339 28
2011-01-27 09:08:55 51°28.069 2°45.258 338.5 13.6 340 28.3
2011-01-27 09:09:01 51°28.091 2°45.246 339.5 13.3 339 27.2
2011-01-27 09:09:06 51°28.108 2°45.234 338.8 13.2 335 -999
2011-01-27 09:09:11 51°28.125 2°45.223 337.2 13.2 338 27.3
2011-01-27 09:09:16 51°28.142 2°45.211 337.1 13.5 338 27.7
2011-01-27 09:09:21 51°28.16 2°45.201 338.3 13.6 338 28.1
2011-01-27 09:09:26 51°28.177 2°45.19 338.3 13.4 338 27.8
2011-01-27 09:09:31 51°28.194 2°45.18 337.7 13.5 342 27.5
2011-01-27 09:09:36 51°28.212 2°45.169 338.9 13.6 338 28.2
2011-01-27 09:09:41 51°28.229 2°45.159 339 13.6 341 28.5
2011-01-27 09:09:46 51°28.247 2°45.148 338.3 13.8 339 28.9
2011-01-27 09:09:51 51°28.265 2°45.138 339 13.7 339 29
2011-01-27 09:09:55 51°28.278 2°45.129 338.6 13.5 339 29.1
2011-01-27 09:10:01 51°28.299 2°45.116 338.3 13.5 339 28.4
2011-01-27 09:10:06 51°28.317 2°45.106 338.4 13.6 340 28.2
2011-01-27 09:10:11 51°28.334 2°45.095 338.3 13.5 339 28.6
2011-01-27 09:10:16 51°28.352 2°45.085 338.7 13.6 340 28.9
2011-01-27 09:10:21 51°28.369 2°45.075 338.7 13.2 340 28
2011-01-27 09:10:26 51°28.386 2°45.065 338.7 13.1 339 27.9
2011-01-27 09:10:31 51°28.403 2°45.055 338.3 13 341 28.8
2011-01-27 09:10:36 51°28.421 2°45.045 339.3 13.3 341 28.8
2011-01-27 09:10:41 51°28.438 2°45.035 338.3 13.4 341 29
2011-01-27 09:10:46 51°28.455 2°45.024 339.7 13.5 338 30
2011-01-27 09:10:51 51°28.473 2°45.015 339.5 13.4 341 29.5
2011-01-27 09:10:56 51°28.491 2°45.005 339.1 13.6 340 29
2011-01-27 09:11:01 51°28.508 2°44.995 339.9 13.5 341 29.1
2011-01-27 09:11:06 51°28.526 2°44.985 338.3 13.6 342 29.3
2011-01-27 09:11:11 51°28.543 2°44.974 339 13.5 340 28.6
2011-01-27 09:11:15 51°28.558 2°44.966 338.4 13.4 340 28.7
2011-01-27 09:11:21 51°28.579 2°44.953 338.8 13.3 340 28.7
2011-01-27 09:11:26 51°28.597 2°44.942 338.3 13.6 338 28.1
2011-01-27 09:11:31 51°28.614 2°44.933 337.5 13.6 343 27.3
2011-01-27 09:11:35 51°28.629 2°44.924 339.4 13.7 338 26.7
2011-01-27 09:11:41 51°28.649 2°44.913 339.1 13.2 342 26
2011-01-27 09:11:46 51°28.667 2°44.903 338.3 13.3 340 27.5
2011-01-27 09:11:51 51°28.684 2°44.894 339.5 13.3 341 27.5
2011-01-27 09:11:55 51°28.698 2°44.885 337.8 13.4 340 27.6
2011-01-27 09:12:01 51°28.719 2°44.874 339 13.6 341 26.9
2011-01-27 09:12:06 51°28.736 2°44.863 338.6 13.5 340 27.2
2011-01-27 09:12:11 51°28.754 2°44.853 338.8 13.4 341 28.1
2011-01-27 09:12:16 51°28.772 2°44.842 339.1 13.7 339 28.8
2011-01-27 09:12:21 51°28.79 2°44.832 338.1 13.4 340 27.2
2011-01-27 09:12:26 51°28.807 2°44.823 337.6 13.4 342 26.9
2011-01-27 09:12:31 51°28.825 2°44.813 339 13.6 340 27.6
2011-01-27 09:12:36 51°28.843 2°44.802 338.1 13.5 341 27.6
2011-01-27 09:12:41 51°28.86 2°44.792 339.7 13.5 339 27.9
2011-01-27 09:12:46 51°28.878 2°44.781 338.3 13.3 340 27.8
2011-01-27 09:12:51 51°28.895 2°44.771 338.8 13.4 339 26.3
2011-01-27 09:12:56 51°28.912 2°44.76 337.2 13.1 338 26.5
2011-01-27 09:13:01 51°28.929 2°44.749 339.5 13.3 338 29.7
2011-01-27 09:13:06 51°28.946 2°44.738 337.2 13.4 339 31.6
2011-01-27 09:13:11 51°28.963 2°44.727 337.2 13.4 338 31.2
2011-01-27 09:13:16 51°28.98 2°44.717 337.1 13.5 340 30.4
2011-01-27 09:13:21 51°28.998 2°44.706 338 13.8 339 31
2011-01-27 09:13:26 51°29.016 2°44.696 338.2 13.6 342 30.3
2011-01-27 09:13:31 51°29.034 2°44.685 339.5 13.7 339 30
2011-01-27 09:13:35 51°29.049 2°44.677 338.8 13.7 341 30.2
2011-01-27 09:13:41 51°29.07 2°44.665 338.8 13.5 340 28.9
2011-01-27 09:13:46 51°29.088 2°44.654 339 13.6 340 29.2
2011-01-27 09:13:51 51°29.105 2°44.644 338.2 13.4 340 30